Terminal Aerodrome Forecast
Issued by NWS Knoxville/Tri Cities, TN

Home | Current Version | Previous Version | Text Only | Print | Product List | Glossary On
Versions: 1 2 3 4 5 6 7 8 9 10 11 12 13 14 15 16 17 18 19 20 21 22 23
000
FTUS44 KMRX 232121 AAA
TAFCHA
TAF AMD
KCHA 232121Z 2321/2418 19015G28KT P6SM VCTS SCT030CB BKN080
      TEMPO 2321/2323 VRB20G35KT 3SM TSRA OVC030CB
     FM240200 21010KT P6SM OVC020
     FM240500 22004KT 5SM BR OVC010
     FM241300 25007KT P6SM VCTS BKN020CB OVC100
     FM241600 30007KT P6SM VCTS BKN035CB=

USA.gov is the U.S. government's official web portal to all federal, state and local government web resources and services.